sensor_id;sensor_type;location;lat;lon;timestamp;pressure;altitude;pressure_sealevel;temperature;humidity
11448;BME280;43755;49.736;8.734;2023-02-17T00:01:01;98579.03;;;9.06;100.00
11448;BME280;43755;49.736;8.734;2023-02-17T00:03:10;98579.94;;;9.05;100.00
11448;BME280;43755;49.736;8.734;2023-02-17T00:05:12;98586.22;;;9.01;100.00
11448;BME280;43755;49.736;8.734;2023-02-17T00:07:13;98582.00;;;8.94;100.00
11448;BME280;43755;49.736;8.734;2023-02-17T00:09:14;98585.56;;;8.91;100.00
11448;BME280;43755;49.736;8.734;2023-02-17T00:11:16;98584.63;;;8.94;100.00
11448;BME280;43755;49.736;8.734;2023-02-17T00:13:17;98584.56;;;8.95;100.00
11448;BME280;43755;49.736;8.734;2023-02-17T00:15:19;98579.56;;;8.86;100.00
11448;BME280;43755;49.736;8.734;2023-02-17T00:17:20;98583.09;;;8.85;100.00
11448;BME280;43755;49.736;8.734;2023-02-17T00:19:24;98578.13;;;8.75;100.00
11448;BME280;43755;49.736;8.734;2023-02-17T00:21:27;98582.66;;;8.70;100.00
11448;BME280;43755;49.736;8.734;2023-02-17T00:23:29;98584.31;;;8.72;100.00
11448;BME280;43755;49.736;8.734;2023-02-17T00:25:30;98584.47;;;8.66;100.00
11448;BME280;43755;49.736;8.734;2023-02-17T00:27:32;98581.91;;;8.65;100.00
11448;BME280;43755;49.736;8.734;2023-02-17T00:29:33;98589.91;;;8.60;100.00
11448;BME280;43755;49.736;8.734;2023-02-17T00:31:35;98582.94;;;8.59;100.00
11448;BME280;43755;49.736;8.734;2023-02-17T00:33:36;98585.66;;;8.54;100.00
11448;BME280;43755;49.736;8.734;2023-02-17T00:35:39;98577.75;;;8.54;100.00
11448;BME280;43755;49.736;8.734;2023-02-17T00:37:41;98583.84;;;8.56;100.00
11448;BME280;43755;49.736;8.734;2023-02-17T00:39:44;98575.91;;;8.58;100.00
11448;BME280;43755;49.736;8.734;2023-02-17T00:41:46;98589.22;;;8.53;100.00
11448;BME280;43755;49.736;8.734;2023-02-17T00:43:47;98579.59;;;8.52;100.00
11448;BME280;43755;49.736;8.734;2023-02-17T00:45:49;98574.38;;;8.49;100.00
11448;BME280;43755;49.736;8.734;2023-02-17T00:47:50;98569.16;;;8.48;100.00
11448;BME280;43755;49.736;8.734;2023-02-17T00:49:52;98571.84;;;8.45;100.00
11448;BME280;43755;49.736;8.734;2023-02-17T00:51:58;98571.06;;;8.41;100.00
11448;BME280;43755;49.736;8.734;2023-02-17T00:54:00;98578.25;;;8.36;100.00
11448;BME280;43755;49.736;8.734;2023-02-17T00:56:03;98571.13;;;8.38;100.00
11448;BME280;43755;49.736;8.734;2023-02-17T00:58:04;98569.38;;;8.39;100.00
11448;BME280;43755;49.736;8.734;2023-02-17T01:00:07;98576.34;;;8.41;100.00
11448;BME280;43755;49.736;8.734;2023-02-17T01:02:09;98571.78;;;8.48;100.00
11448;BME280;43755;49.736;8.734;2023-02-17T01:04:10;98582.34;;;8.48;100.00
11448;BME280;43755;49.736;8.734;2023-02-17T01:06:17;98578.69;;;8.53;100.00
11448;BME280;43755;49.736;8.734;2023-02-17T01:08:23;98575.03;;;8.59;100.00
11448;BME280;43755;49.736;8.734;2023-02-17T01:10:25;98577.66;;;8.59;100.00
11448;BME280;43755;49.736;8.734;2023-02-17T01:12:26;98569.81;;;8.56;100.00
11448;BME280;43755;49.736;8.734;2023-02-17T01:14:28;98581.09;;;8.61;100.00
11448;BME280;43755;49.736;8.734;2023-02-17T01:16:31;98571.50;;;8.58;100.00
11448;BME280;43755;49.736;8.734;2023-02-17T01:18:34;98571.53;;;8.57;100.00
11448;BME280;43755;49.736;8.734;2023-02-17T01:20:36;98572.09;;;8.70;100.00
11448;BME280;43755;49.736;8.734;2023-02-17T01:22:38;98571.25;;;8.68;100.00
11448;BME280;43755;49.736;8.734;2023-02-17T01:24:41;98571.78;;;8.82;100.00
11448;BME280;43755;49.736;8.734;2023-02-17T01:26:42;98575.28;;;8.82;100.00
11448;BME280;43755;49.736;8.734;2023-02-17T01:28:44;98573.75;;;8.74;100.00
11448;BME280;43755;49.736;8.734;2023-02-17T01:30:46;98572.00;;;8.73;100.00
11448;BME280;43755;49.736;8.734;2023-02-17T01:32:47;98573.53;;;8.81;100.00
11448;BME280;43755;49.736;8.734;2023-02-17T01:34:49;98577.94;;;8.81;100.00
11448;BME280;43755;49.736;8.734;2023-02-17T01:36:50;98575.56;;;8.72;100.00
11448;BME280;43755;49.736;8.734;2023-02-17T01:38:52;98575.66;;;8.67;100.00
11448;BME280;43755;49.736;8.734;2023-02-17T01:40:54;98572.09;;;8.70;100.00
11448;BME280;43755;49.736;8.734;2023-02-17T01:42:56;98573.78;;;8.72;100.00
11448;BME280;43755;49.736;8.734;2023-02-17T01:45:32;98573.91;;;8.68;100.00
11448;BME280;43755;49.736;8.734;2023-02-17T01:47:34;98567.81;;;8.66;100.00
11448;BME280;43755;49.736;8.734;2023-02-17T01:49:37;98573.16;;;8.62;100.00
11448;BME280;43755;49.736;8.734;2023-02-17T01:51:39;98569.75;;;8.59;100.00
11448;BME280;43755;49.736;8.734;2023-02-17T01:53:44;98574.94;;;8.60;100.00
11448;BME280;43755;49.736;8.734;2023-02-17T01:55:47;98567.16;;;8.56;100.00
11448;BME280;43755;49.736;8.734;2023-02-17T01:57:51;98565.50;;;8.53;100.00
11448;BME280;43755;49.736;8.734;2023-02-17T01:59:54;98567.03;;;8.60;100.00
11448;BME280;43755;49.736;8.734;2023-02-17T02:01:58;98564.22;;;8.68;100.00
11448;BME280;43755;49.736;8.734;2023-02-17T02:04:02;98571.19;;;8.71;100.00
11448;BME280;43755;49.736;8.734;2023-02-17T02:06:08;98561.53;;;8.70;100.00
11448;BME280;43755;49.736;8.734;2023-02-17T02:08:11;98561.69;;;8.65;100.00
11448;BME280;43755;49.736;8.734;2023-02-17T02:10:15;98557.28;;;8.66;100.00
11448;BME280;43755;49.736;8.734;2023-02-17T02:12:18;98554.50;;;8.70;100.00
11448;BME280;43755;49.736;8.734;2023-02-17T02:14:22;98546.63;;;8.69;100.00
11448;BME280;43755;49.736;8.734;2023-02-17T02:16:27;98550.09;;;8.71;100.00
11448;BME280;43755;49.736;8.734;2023-02-17T02:18:41;98531.53;;;8.74;100.00
11448;BME280;43755;49.736;8.734;2023-02-17T02:21:02;98534.19;;;8.72;100.00
11448;BME280;43755;49.736;8.734;2023-02-17T02:23:48;98535.22;;;8.67;100.00
11448;BME280;43755;49.736;8.734;2023-02-17T02:26:08;98527.25;;;8.70;100.00
11448;BME280;43755;49.736;8.734;2023-02-17T02:28:20;98521.09;;;8.69;100.00
11448;BME280;43755;49.736;8.734;2023-02-17T02:30:47;98520.25;;;8.69;100.00
11448;BME280;43755;49.736;8.734;2023-02-17T02:33:03;98517.56;;;8.70;100.00
11448;BME280;43755;49.736;8.734;2023-02-17T02:35:10;98517.56;;;8.70;100.00
11448;BME280;43755;49.736;8.734;2023-02-17T02:37:17;98515.91;;;8.66;100.00
11448;BME280;43755;49.736;8.734;2023-02-17T02:39:23;98511.44;;;8.70;100.00
11448;BME280;43755;49.736;8.734;2023-02-17T02:41:30;98500.78;;;8.73;100.00
11448;BME280;43755;49.736;8.734;2023-02-17T02:43:32;98502.63;;;8.71;100.00
11448;BME280;43755;49.736;8.734;2023-02-17T02:45:34;98499.19;;;8.67;100.00
11448;BME280;43755;49.736;8.734;2023-02-17T02:47:42;98493.09;;;8.65;100.00
11448;BME280;43755;49.736;8.734;2023-02-17T02:49:45;98497.50;;;8.65;100.00
11448;BME280;43755;49.736;8.734;2023-02-17T02:51:50;98478.22;;;8.62;100.00
11448;BME280;43755;49.736;8.734;2023-02-17T02:54:01;98487.03;;;8.61;100.00
11448;BME280;43755;49.736;8.734;2023-02-17T02:56:11;98487.06;;;8.60;100.00
11448;BME280;43755;49.736;8.734;2023-02-17T02:58:17;98477.22;;;8.67;100.00
11448;BME280;43755;49.736;8.734;2023-02-17T03:00:25;98479.78;;;8.70;100.00
11448;BME280;43755;49.736;8.734;2023-02-17T03:02:34;98473.78;;;8.65;100.00
11448;BME280;43755;49.736;8.734;2023-02-17T03:04:41;98473.78;;;8.65;100.00
11448;BME280;43755;49.736;8.734;2023-02-17T03:06:52;98464.72;;;8.73;100.00
11448;BME280;43755;49.736;8.734;2023-02-17T03:08:59;98456.81;;;8.73;100.00
11448;BME280;43755;49.736;8.734;2023-02-17T03:11:01;98460.41;;;8.71;100.00
11448;BME280;43755;49.736;8.734;2023-02-17T03:13:03;98459.38;;;8.76;100.00
11448;BME280;43755;49.736;8.734;2023-02-17T03:15:10;98462.91;;;8.75;100.00
11448;BME280;43755;49.736;8.734;2023-02-17T03:17:14;98461.28;;;8.71;100.00
11448;BME280;43755;49.736;8.734;2023-02-17T03:19:17;98462.22;;;8.69;100.00
11448;BME280;43755;49.736;8.734;2023-02-17T03:21:20;98453.59;;;8.62;100.00
11448;BME280;43755;49.736;8.734;2023-02-17T03:23:23;98460.66;;;8.61;100.00
11448;BME280;43755;49.736;8.734;2023-02-17T03:25:24;98455.41;;;8.60;100.00
11448;BME280;43755;49.736;8.734;2023-02-17T03:27:25;98454.50;;;8.61;100.00
11448;BME280;43755;49.736;8.734;2023-02-17T03:29:27;98448.97;;;8.72;100.00
11448;BME280;43755;49.736;8.734;2023-02-17T03:31:28;98451.50;;;8.75;100.00
11448;BME280;43755;49.736;8.734;2023-02-17T03:33:30;98453.22;;;8.76;100.00
11448;BME280;43755;49.736;8.734;2023-02-17T03:35:31;98451.47;;;8.76;100.00
11448;BME280;43755;49.736;8.734;2023-02-17T03:37:33;98456.66;;;8.78;100.00
11448;BME280;43755;49.736;8.734;2023-02-17T03:39:35;98445.50;;;8.70;100.00
11448;BME280;43755;49.736;8.734;2023-02-17T03:41:37;98448.13;;;8.70;100.00
11448;BME280;43755;49.736;8.734;2023-02-17T03:43:38;98454.22;;;8.72;100.00
11448;BME280;43755;49.736;8.734;2023-02-17T03:45:40;98457.69;;;8.72;100.00
11448;BME280;43755;49.736;8.734;2023-02-17T03:47:41;98448.75;;;8.78;100.00
11448;BME280;43755;49.736;8.734;2023-02-17T03:49:42;98445.13;;;8.82;100.00
11448;BME280;43755;49.736;8.734;2023-02-17T03:51:44;98442.50;;;8.82;100.00
11448;BME280;43755;49.736;8.734;2023-02-17T03:53:45;98451.28;;;8.82;100.00
11448;BME280;43755;49.736;8.734;2023-02-17T03:55:48;98446.03;;;8.81;100.00
11448;BME280;43755;49.736;8.734;2023-02-17T03:57:50;98455.84;;;8.77;100.00
11448;BME280;43755;49.736;8.734;2023-02-17T03:59:51;98457.59;;;8.77;100.00
11448;BME280;43755;49.736;8.734;2023-02-17T04:01:52;98446.22;;;8.75;100.00
11448;BME280;43755;49.736;8.734;2023-02-17T04:03:54;98454.91;;;8.78;100.00
11448;BME280;43755;49.736;8.734;2023-02-17T04:05:56;98459.31;;;8.78;100.00
11448;BME280;43755;49.736;8.734;2023-02-17T04:07:57;98463.84;;;8.73;100.00
11448;BME280;43755;49.736;8.734;2023-02-17T04:09:58;98462.16;;;8.72;100.00
11448;BME280;43755;49.736;8.734;2023-02-17T04:12:01;98462.22;;;8.69;100.00
11448;BME280;43755;49.736;8.734;2023-02-17T04:14:03;98460.34;;;8.72;100.00
11448;BME280;43755;49.736;8.734;2023-02-17T04:16:05;98459.41;;;8.75;100.00
11448;BME280;43755;49.736;8.734;2023-02-17T04:18:07;98461.94;;;8.78;100.00
11448;BME280;43755;49.736;8.734;2023-02-17T04:20:10;98461.31;;;8.70;100.00
11448;BME280;43755;49.736;8.734;2023-02-17T04:22:11;98468.44;;;8.66;100.00
11448;BME280;43755;49.736;8.734;2023-02-17T04:24:13;98464.94;;;8.66;100.00
11448;BME280;43755;49.736;8.734;2023-02-17T04:26:14;98472.03;;;8.63;100.00
11448;BME280;43755;49.736;8.734;2023-02-17T04:28:17;98468.50;;;8.65;100.00
11448;BME280;43755;49.736;8.734;2023-02-17T04:30:19;98475.53;;;8.64;100.00
11448;BME280;43755;49.736;8.734;2023-02-17T04:32:20;98471.00;;;8.69;100.00
11448;BME280;43755;49.736;8.734;2023-02-17T04:34:21;98476.16;;;8.72;100.00
11448;BME280;43755;49.736;8.734;2023-02-17T04:36:23;98472.75;;;8.69;100.00
11448;BME280;43755;49.736;8.734;2023-02-17T04:38:25;98470.16;;;8.67;100.00
11448;BME280;43755;49.736;8.734;2023-02-17T04:40:27;98477.13;;;8.70;100.00
11448;BME280;43755;49.736;8.734;2023-02-17T04:42:29;98475.53;;;8.64;100.00
11448;BME280;43755;49.736;8.734;2023-02-17T04:44:31;98473.88;;;8.60;100.00
11448;BME280;43755;49.736;8.734;2023-02-17T04:46:33;98471.22;;;8.60;100.00
11448;BME280;43755;49.736;8.734;2023-02-17T04:48:34;98470.25;;;8.64;100.00
11448;BME280;43755;49.736;8.734;2023-02-17T04:50:36;98471.91;;;8.68;100.00
11448;BME280;43755;49.736;8.734;2023-02-17T04:52:37;98470.16;;;8.67;100.00
11448;BME280;43755;49.736;8.734;2023-02-17T04:54:39;98478.88;;;8.71;100.00
11448;BME280;43755;49.736;8.734;2023-02-17T04:56:40;98474.34;;;8.76;100.00
11448;BME280;43755;49.736;8.734;2023-02-17T04:58:41;98468.22;;;8.74;100.00
11448;BME280;43755;49.736;8.734;2023-02-17T05:00:45;98474.38;;;8.74;100.00
11448;BME280;43755;49.736;8.734;2023-02-17T05:02:46;98473.47;;;8.75;100.00
11448;BME280;43755;49.736;8.734;2023-02-17T05:04:48;98473.50;;;8.74;100.00
11448;BME280;43755;49.736;8.734;2023-02-17T05:06:49;98469.09;;;8.74;100.00
11448;BME280;43755;49.736;8.734;2023-02-17T05:08:51;98465.63;;;8.72;100.00
11448;BME280;43755;49.736;8.734;2023-02-17T05:10:53;98470.97;;;8.71;100.00
11448;BME280;43755;49.736;8.734;2023-02-17T05:12:54;98477.00;;;8.74;100.00
11448;BME280;43755;49.736;8.734;2023-02-17T05:14:59;98480.59;;;8.72;100.00
11448;BME280;43755;49.736;8.734;2023-02-17T05:17:02;98484.22;;;8.68;100.00
11448;BME280;43755;49.736;8.734;2023-02-17T05:19:03;98482.41;;;8.70;100.00
11448;BME280;43755;49.736;8.734;2023-02-17T05:21:04;98476.31;;;8.68;100.00
11448;BME280;43755;49.736;8.734;2023-02-17T05:23:06;98487.41;;;8.79;100.00
11448;BME280;43755;49.736;8.734;2023-02-17T05:25:07;98483.25;;;8.72;100.00
11448;BME280;43755;49.736;8.734;2023-02-17T05:27:09;98477.09;;;8.71;100.00
11448;BME280;43755;49.736;8.734;2023-02-17T05:29:10;98480.66;;;8.70;100.00
11448;BME280;43755;49.736;8.734;2023-02-17T05:31:12;98484.09;;;8.72;100.00
11448;BME280;43755;49.736;8.734;2023-02-17T05:33:14;98480.53;;;8.73;100.00
11448;BME280;43755;49.736;8.734;2023-02-17T05:35:16;98479.91;;;8.65;100.00
11448;BME280;43755;49.736;8.734;2023-02-17T05:37:18;98478.97;;;8.66;100.00
11448;BME280;43755;49.736;8.734;2023-02-17T05:39:19;98483.25;;;8.72;100.00
11448;BME280;43755;49.736;8.734;2023-02-17T05:41:21;98479.03;;;8.65;100.00
11448;BME280;43755;49.736;8.734;2023-02-17T05:43:22;98493.19;;;8.60;100.00
11448;BME280;43755;49.736;8.734;2023-02-17T05:45:24;98477.44;;;8.59;100.00
11448;BME280;43755;49.736;8.734;2023-02-17T05:47:25;98483.66;;;8.56;100.00
11448;BME280;43755;49.736;8.734;2023-02-17T05:49:28;98476.56;;;8.58;100.00
11448;BME280;43755;49.736;8.734;2023-02-17T05:51:30;98469.47;;;8.60;100.00
11448;BME280;43755;49.736;8.734;2023-02-17T05:53:31;98474.72;;;8.60;100.00
11448;BME280;43755;49.736;8.734;2023-02-17T05:55:33;98470.47;;;8.56;100.00
11448;BME280;43755;49.736;8.734;2023-02-17T05:57:34;98484.69;;;8.51;100.00
11448;BME280;43755;49.736;8.734;2023-02-17T05:59:35;98481.03;;;8.55;100.00
11448;BME280;43755;49.736;8.734;2023-02-17T06:01:37;98486.31;;;8.55;100.00
11448;BME280;43755;49.736;8.734;2023-02-17T06:03:38;98486.41;;;8.52;100.00
11448;BME280;43755;49.736;8.734;2023-02-17T06:05:41;98485.50;;;8.53;100.00
11448;BME280;43755;49.736;8.734;2023-02-17T06:07:45;98483.75;;;8.53;100.00
11448;BME280;43755;49.736;8.734;2023-02-17T06:09:46;98484.63;;;8.54;100.00
11448;BME280;43755;49.736;8.734;2023-02-17T06:11:47;98482.00;;;8.52;100.00
11448;BME280;43755;49.736;8.734;2023-02-17T06:13:49;98491.72;;;8.50;100.00
11448;BME280;43755;49.736;8.734;2023-02-17T06:15:50;98482.97;;;8.48;100.00
11448;BME280;43755;49.736;8.734;2023-02-17T06:17:52;98487.31;;;8.51;100.00
11448;BME280;43755;49.736;8.734;2023-02-17T06:19:53;98486.47;;;8.49;100.00
11448;BME280;43755;49.736;8.734;2023-02-17T06:21:56;98488.25;;;8.48;100.00
11448;BME280;43755;49.736;8.734;2023-02-17T06:23:57;98488.25;;;8.48;100.00
11448;BME280;43755;49.736;8.734;2023-02-17T06:25:59;98485.53;;;8.51;100.00
11448;BME280;43755;49.736;8.734;2023-02-17T06:28:00;98486.53;;;8.47;100.00
11448;BME280;43755;49.736;8.734;2023-02-17T06:30:02;98484.81;;;8.46;100.00
11448;BME280;43755;49.736;8.734;2023-02-17T06:32:03;98485.69;;;8.47;100.00
11448;BME280;43755;49.736;8.734;2023-02-17T06:34:05;98484.00;;;8.43;100.00
11448;BME280;43755;49.736;8.734;2023-02-17T06:36:07;98487.47;;;8.45;100.00
11448;BME280;43755;49.736;8.734;2023-02-17T06:38:10;98479.56;;;8.45;100.00
11448;BME280;43755;49.736;8.734;2023-02-17T06:40:11;98485.63;;;8.48;100.00
11448;BME280;43755;49.736;8.734;2023-02-17T06:42:13;98495.38;;;8.45;100.00
11448;BME280;43755;49.736;8.734;2023-02-17T06:44:14;98502.41;;;8.46;100.00
11448;BME280;43755;49.736;8.734;2023-02-17T06:46:16;98502.44;;;8.44;100.00
11448;BME280;43755;49.736;8.734;2023-02-17T06:48:17;98501.41;;;8.50;100.00
11448;BME280;43755;49.736;8.734;2023-02-17T06:50:19;98498.75;;;8.50;100.00
11448;BME280;43755;49.736;8.734;2023-02-17T06:52:21;98495.34;;;8.46;100.00
11448;BME280;43755;49.736;8.734;2023-02-17T06:54:23;98498.88;;;8.47;100.00
11448;BME280;43755;49.736;8.734;2023-02-17T06:56:25;98494.66;;;8.40;100.00
11448;BME280;43755;49.736;8.734;2023-02-17T06:58:26;98498.19;;;8.39;100.00
11448;BME280;43755;49.736;8.734;2023-02-17T07:00:28;98493.88;;;8.36;100.00
11448;BME280;43755;49.736;8.734;2023-02-17T07:02:29;98497.41;;;8.35;100.00
11448;BME280;43755;49.736;8.734;2023-02-17T07:04:31;98495.66;;;8.36;100.00
11448;BME280;43755;49.736;8.734;2023-02-17T07:06:32;98507.81;;;8.40;100.00
11448;BME280;43755;49.736;8.734;2023-02-17T07:08:34;98512.94;;;8.46;100.00
11448;BME280;43755;49.736;8.734;2023-02-17T07:10:37;98517.34;;;8.45;100.00
11448;BME280;43755;49.736;8.734;2023-02-17T07:12:38;98525.38;;;8.41;100.00
11448;BME280;43755;49.736;8.734;2023-02-17T07:14:40;98527.22;;;8.37;100.00
11448;BME280;43755;49.736;8.734;2023-02-17T07:16:41;98525.41;;;8.39;100.00
11448;BME280;43755;49.736;8.734;2023-02-17T07:18:43;98539.53;;;8.37;100.00
11448;BME280;43755;49.736;8.734;2023-02-17T07:20:44;98537.72;;;8.39;100.00
11448;BME280;43755;49.736;8.734;2023-02-17T07:22:47;98533.56;;;8.30;100.00
11448;BME280;43755;49.736;8.734;2023-02-17T07:24:48;98532.72;;;8.27;100.00
11448;BME280;43755;49.736;8.734;2023-02-17T07:26:51;98538.03;;;8.25;100.00
11448;BME280;43755;49.736;8.734;2023-02-17T07:28:55;98543.22;;;8.30;100.00
11448;BME280;43755;49.736;8.734;2023-02-17T07:31:03;98545.81;;;8.31;100.00
11448;BME280;43755;49.736;8.734;2023-02-17T07:33:05;98554.56;;;8.33;100.00
11448;BME280;43755;49.736;8.734;2023-02-17T07:35:07;98555.53;;;8.29;100.00
11448;BME280;43755;49.736;8.734;2023-02-17T07:37:08;98545.09;;;8.25;100.00
11448;BME280;43755;49.736;8.734;2023-02-17T07:39:09;98552.03;;;8.29;100.00
11448;BME280;43755;49.736;8.734;2023-02-17T07:41:12;98546.81;;;8.26;100.00
11448;BME280;43755;49.736;8.734;2023-02-17T07:43:15;98551.19;;;8.27;100.00
11448;BME280;43755;49.736;8.734;2023-02-17T07:45:17;98546.75;;;8.29;100.00
11448;BME280;43755;49.736;8.734;2023-02-17T07:47:18;98541.50;;;8.27;100.00
11448;BME280;43755;49.736;8.734;2023-02-17T07:49:20;98534.47;;;8.28;100.00
11448;BME280;43755;49.736;8.734;2023-02-17T07:51:22;98530.88;;;8.32;100.00
11448;BME280;43755;49.736;8.734;2023-02-17T07:53:24;98531.72;;;8.34;100.00
11448;BME280;43755;49.736;8.734;2023-02-17T07:55:25;98528.16;;;8.36;100.00
11448;BME280;43755;49.736;8.734;2023-02-17T07:57:26;98532.50;;;8.37;100.00
11448;BME280;43755;49.736;8.734;2023-02-17T07:59:29;98516.66;;;8.37;100.00
11448;BME280;43755;49.736;8.734;2023-02-17T08:01:31;98529.78;;;8.40;100.00
11448;BME280;43755;49.736;8.734;2023-02-17T08:03:32;98527.13;;;8.42;100.00
11448;BME280;43755;49.736;8.734;2023-02-17T08:05:37;98531.44;;;8.44;100.00
11448;BME280;43755;49.736;8.734;2023-02-17T08:07:38;98529.53;;;8.49;100.00
11448;BME280;43755;49.736;8.734;2023-02-17T08:09:40;98529.47;;;8.52;100.00
11448;BME280;43755;49.736;8.734;2023-02-17T08:11:59;98532.91;;;8.54;100.00
11448;BME280;43755;49.736;8.734;2023-02-17T08:14:20;98541.69;;;8.55;100.00
11448;BME280;43755;49.736;8.734;2023-02-17T08:16:22;98539.94;;;8.55;100.00
11448;BME280;43755;49.736;8.734;2023-02-17T08:18:25;98538.97;;;8.59;100.00
11448;BME280;43755;49.736;8.734;2023-02-17T08:20:27;98532.84;;;8.57;100.00
11448;BME280;43755;49.736;8.734;2023-02-17T08:22:28;98530.13;;;8.60;100.00
11448;BME280;43755;49.736;8.734;2023-02-17T08:24:30;98537.94;;;8.65;100.00
11448;BME280;43755;49.736;8.734;2023-02-17T08:26:31;98537.13;;;8.61;100.00
11448;BME280;43755;49.736;8.734;2023-02-17T08:28:32;98536.22;;;8.62;100.00
11448;BME280;43755;49.736;8.734;2023-02-17T08:30:34;98532.59;;;8.67;100.00
11448;BME280;43755;49.736;8.734;2023-02-17T08:32:38;98529.94;;;8.68;100.00
11448;BME280;43755;49.736;8.734;2023-02-17T08:34:40;98536.09;;;8.67;100.00
11448;BME280;43755;49.736;8.734;2023-02-17T08:36:41;98534.31;;;8.69;100.00
11448;BME280;43755;49.736;8.734;2023-02-17T08:38:43;98541.34;;;8.69;100.00
11448;BME280;43755;49.736;8.734;2023-02-17T08:40:49;98534.19;;;8.72;100.00
11448;BME280;43755;49.736;8.734;2023-02-17T08:42:50;98532.44;;;8.73;100.00
11448;BME280;43755;49.736;8.734;2023-02-17T08:44:52;98536.69;;;8.78;100.00
11448;BME280;43755;49.736;8.734;2023-02-17T08:46:53;98534.13;;;8.75;100.00
11448;BME280;43755;49.736;8.734;2023-02-17T08:48:56;98524.34;;;8.79;100.00
11448;BME280;43755;49.736;8.734;2023-02-17T08:50:57;98532.28;;;8.79;100.00
11448;BME280;43755;49.736;8.734;2023-02-17T08:52:59;98526.09;;;8.80;100.00
11448;BME280;43755;49.736;8.734;2023-02-17T08:55:00;98522.41;;;8.85;100.00
11448;BME280;43755;49.736;8.734;2023-02-17T08:57:02;98529.28;;;8.91;100.00
11448;BME280;43755;49.736;8.734;2023-02-17T08:59:04;98523.13;;;8.92;100.00
11448;BME280;43755;49.736;8.734;2023-02-17T09:01:05;98523.06;;;8.95;100.00
11448;BME280;43755;49.736;8.734;2023-02-17T09:03:07;98519.41;;;8.99;100.00
11448;BME280;43755;49.736;8.734;2023-02-17T09:05:11;98529.94;;;9.00;100.00
11448;BME280;43755;49.736;8.734;2023-02-17T09:07:13;98534.22;;;9.03;100.00
11448;BME280;43755;49.736;8.734;2023-02-17T09:09:17;98528.78;;;9.09;100.00
11448;BME280;43755;49.736;8.734;2023-02-17T09:11:19;98532.06;;;9.17;100.00
11448;BME280;43755;49.736;8.734;2023-02-17T09:13:21;98539.13;;;9.17;100.00
11448;BME280;43755;49.736;8.734;2023-02-17T09:15:22;98536.53;;;9.15;100.00
11448;BME280;43755;49.736;8.734;2023-02-17T09:17:24;98537.59;;;9.08;100.00
11448;BME280;43755;49.736;8.734;2023-02-17T09:19:25;98542.94;;;9.07;100.00
11448;BME280;43755;49.736;8.734;2023-02-17T09:21:28;98549.13;;;9.06;100.00
11448;BME280;43755;49.736;8.734;2023-02-17T09:23:30;98545.69;;;9.02;100.00
11448;BME280;43755;49.736;8.734;2023-02-17T09:25:31;98543.06;;;9.02;100.00
11448;BME280;43755;49.736;8.734;2023-02-17T09:27:32;98550.22;;;8.98;100.00
11448;BME280;43755;49.736;8.734;2023-02-17T09:29:35;98538.72;;;9.01;100.00
11448;BME280;43755;49.736;8.734;2023-02-17T09:31:37;98546.72;;;8.96;100.00
11448;BME280;43755;49.736;8.734;2023-02-17T09:33:38;98531.78;;;8.95;100.00
11448;BME280;43755;49.736;8.734;2023-02-17T09:35:40;98541.44;;;8.96;100.00
11448;BME280;43755;49.736;8.734;2023-02-17T09:37:44;98535.31;;;8.96;100.00
11448;BME280;43755;49.736;8.734;2023-02-17T09:39:46;98538.97;;;8.90;100.00
11448;BME280;43755;49.736;8.734;2023-02-17T09:41:49;98540.75;;;8.90;100.00
11448;BME280;43755;49.736;8.734;2023-02-17T09:43:54;98537.31;;;8.88;100.00
11448;BME280;43755;49.736;8.734;2023-02-17T09:45:59;98539.84;;;8.91;100.00
11448;BME280;43755;49.736;8.734;2023-02-17T09:48:05;98535.31;;;8.96;100.00
11448;BME280;43755;49.736;8.734;2023-02-17T09:50:11;98534.28;;;9.01;100.00
11448;BME280;43755;49.736;8.734;2023-02-17T09:52:18;98539.44;;;9.06;100.00
11448;BME280;43755;49.736;8.734;2023-02-17T09:54:26;98534.16;;;9.06;100.00
11448;BME280;43755;49.736;8.734;2023-02-17T09:56:32;98540.38;;;9.03;100.00
11448;BME280;43755;49.736;8.734;2023-02-17T09:58:37;98546.78;;;8.95;100.00
11448;BME280;43755;49.736;8.734;2023-02-17T10:00:44;98551.19;;;8.94;100.00
11448;BME280;43755;49.736;8.734;2023-02-17T10:02:53;98548.63;;;8.91;100.00
11448;BME280;43755;49.736;8.734;2023-02-17T10:04:56;98557.38;;;8.93;100.00
11448;BME280;43755;49.736;8.734;2023-02-17T10:07:04;98563.66;;;8.89;100.00
11448;BME280;43755;49.736;8.734;2023-02-17T10:09:11;98559.31;;;8.87;100.00
11448;BME280;43755;49.736;8.734;2023-02-17T10:11:22;98564.72;;;8.82;100.00
11448;BME280;43755;49.736;8.734;2023-02-17T10:13:28;98565.69;;;8.78;100.00
11448;BME280;43755;49.736;8.734;2023-02-17T10:15:35;98561.25;;;8.80;100.00
11448;BME280;43755;49.736;8.734;2023-02-17T10:17:43;98567.28;;;8.85;100.00
11448;BME280;43755;49.736;8.734;2023-02-17T10:19:51;98572.53;;;8.85;100.00
11448;BME280;43755;49.736;8.734;2023-02-17T10:21:57;98569.13;;;8.82;100.00
11448;BME280;43755;49.736;8.734;2023-02-17T10:24:02;98573.50;;;8.83;100.00
11448;BME280;43755;49.736;8.734;2023-02-17T10:26:12;98579.69;;;8.82;100.00
11448;BME280;43755;49.736;8.734;2023-02-17T10:28:21;98579.56;;;8.86;100.00
11448;BME280;43755;49.736;8.734;2023-02-17T10:30:29;98578.66;;;8.87;100.00
11448;BME280;43755;49.736;8.734;2023-02-17T10:32:40;98587.31;;;8.92;100.00
11448;BME280;43755;49.736;8.734;2023-02-17T10:34:54;98581.94;;;8.95;100.00
11448;BME280;43755;49.736;8.734;2023-02-17T10:37:02;98575.72;;;8.98;100.00
11448;BME280;43755;49.736;8.734;2023-02-17T10:39:11;98567.91;;;8.95;100.00
11448;BME280;43755;49.736;8.734;2023-02-17T10:41:16;98559.19;;;8.91;100.00
11448;BME280;43755;49.736;8.734;2023-02-17T10:43:25;98562.56;;;8.96;100.00
11448;BME280;43755;49.736;8.734;2023-02-17T10:45:33;98559.94;;;8.96;100.00
11448;BME280;43755;49.736;8.734;2023-02-17T10:47:36;98555.44;;;9.00;100.00
11448;BME280;43755;49.736;8.734;2023-02-17T10:49:41;98549.19;;;9.02;100.00
11448;BME280;43755;49.736;8.734;2023-02-17T10:51:45;98553.44;;;9.08;100.00
11448;BME280;43755;49.736;8.734;2023-02-17T10:53:51;98554.09;;;9.16;100.00